createdAt,value
2023-02-14T00:01:42.649Z,3.71
2023-02-14T00:03:44.256Z,3.76
2023-02-14T00:05:45.830Z,3.68
2023-02-14T00:07:47.424Z,3.63
2023-02-14T00:09:49.064Z,3.62
2023-02-14T00:11:50.857Z,3.62
2023-02-14T00:14:11.117Z,3.57
2023-02-14T00:16:12.758Z,3.62
2023-02-14T00:18:14.427Z,3.58
2023-02-14T00:20:16.151Z,3.63
2023-02-14T00:22:17.775Z,3.53
2023-02-14T00:24:24.855Z,3.61
2023-02-14T00:26:26.413Z,3.50
2023-02-14T00:28:28.053Z,3.58
2023-02-14T00:30:29.968Z,3.48
2023-02-14T00:32:31.984Z,3.54
2023-02-14T00:34:36.563Z,3.57
2023-02-14T00:36:38.807Z,3.51
2023-02-14T00:38:40.406Z,3.50
2023-02-14T00:40:41.981Z,3.57
2023-02-14T00:42:43.591Z,3.67
2023-02-14T00:44:45.230Z,3.72
2023-02-14T00:46:46.854Z,3.72
2023-02-14T00:48:48.516Z,3.63
2023-02-14T00:50:50.103Z,3.56
2023-02-14T00:52:51.680Z,3.57
2023-02-14T00:54:53.355Z,3.52
2023-02-14T00:56:54.982Z,3.50
2023-02-14T00:58:56.601Z,3.50
2023-02-14T01:00:59.023Z,3.58
2023-02-14T01:03:00.800Z,3.57
2023-02-14T01:05:02.459Z,3.49
2023-02-14T01:07:04.080Z,3.53
2023-02-14T01:09:05.692Z,3.35
2023-02-14T01:11:17.951Z,3.45
2023-02-14T01:13:20.313Z,3.56
2023-02-14T01:15:22.471Z,3.53
2023-02-14T01:17:24.060Z,3.49
2023-02-14T01:19:25.687Z,3.49
2023-02-14T01:21:30.092Z,3.55
2023-02-14T01:23:31.751Z,3.59
2023-02-14T01:25:33.765Z,3.55
2023-02-14T01:27:35.550Z,3.48
2023-02-14T01:29:37.217Z,3.42
2023-02-14T01:31:38.971Z,3.45
2023-02-14T01:33:41.690Z,3.49
2023-02-14T01:35:43.303Z,3.52
2023-02-14T01:37:44.909Z,3.59
2023-02-14T01:39:46.518Z,3.61
2023-02-14T01:41:48.918Z,3.56
2023-02-14T01:44:02.227Z,3.56
2023-02-14T01:46:03.947Z,3.56
2023-02-14T01:48:05.669Z,3.48
2023-02-14T01:50:31.784Z,3.57
2023-02-14T01:52:41.564Z,3.52
2023-02-14T01:54:51.529Z,3.58
2023-02-14T01:57:00.401Z,3.64
2023-02-14T01:59:03.248Z,3.62
2023-02-14T02:01:05.302Z,3.52
2023-02-14T02:03:08.473Z,3.49
2023-02-14T02:05:10.426Z,3.52
2023-02-14T02:07:17.156Z,3.51
2023-02-14T02:09:24.649Z,3.51
2023-02-14T02:11:26.999Z,3.51
2023-02-14T02:13:28.830Z,3.36
2023-02-14T02:15:32.356Z,3.37
2023-02-14T02:17:36.939Z,3.47
2023-02-14T02:20:16.294Z,3.50
2023-02-14T02:22:35.751Z,3.53
2023-02-14T02:24:49.664Z,3.53
2023-02-14T02:27:17.113Z,3.51
2023-02-14T02:29:33.818Z,3.45
2023-02-14T02:31:44.439Z,3.38
2023-02-14T02:34:09.473Z,3.42
2023-02-14T02:36:17.520Z,3.54
2023-02-14T02:38:36.306Z,3.51
2023-02-14T02:40:40.607Z,3.51
2023-02-14T02:42:47.932Z,3.54
2023-02-14T02:45:01.436Z,3.50
2023-02-14T02:47:06.986Z,3.56
2023-02-14T02:49:53.253Z,3.47
2023-02-14T02:52:14.393Z,3.49
2023-02-14T02:54:29.289Z,3.41
2023-02-14T02:56:47.464Z,3.39
2023-02-14T02:58:53.338Z,3.48
2023-02-14T03:00:55.241Z,3.53
2023-02-14T03:03:16.336Z,3.51
2023-02-14T03:05:19.312Z,3.46
2023-02-14T03:07:34.985Z,3.45
2023-02-14T03:09:41.669Z,3.52
2023-02-14T03:12:10.085Z,3.55
2023-02-14T03:14:34.070Z,3.54
2023-02-14T03:16:41.561Z,3.55
2023-02-14T03:19:20.904Z,3.51
2023-02-14T03:21:41.884Z,3.45
2023-02-14T03:24:08.507Z,3.34
2023-02-14T03:26:40.236Z,3.24
2023-02-14T03:29:02.040Z,3.28
2023-02-14T03:31:23.244Z,3.38
2023-02-14T03:33:30.051Z,3.38
2023-02-14T03:35:31.677Z,3.17
2023-02-14T03:37:39.801Z,3.22
2023-02-14T03:39:59.764Z,3.18
2023-02-14T03:42:13.241Z,3.06
2023-02-14T03:44:18.727Z,3.15
2023-02-14T03:46:28.496Z,3.19
2023-02-14T03:48:31.019Z,3.20
2023-02-14T03:50:33.482Z,3.30
2023-02-14T03:52:36.473Z,3.30
2023-02-14T03:54:38.416Z,3.24
2023-02-14T03:56:50.086Z,3.27
2023-02-14T03:58:55.026Z,3.31
2023-02-14T04:01:02.171Z,3.14
2023-02-14T04:03:09.819Z,3.09
2023-02-14T04:05:17.945Z,3.18
2023-02-14T04:07:21.595Z,3.20
2023-02-14T04:09:23.332Z,3.20
2023-02-14T04:11:25.033Z,3.18
2023-02-14T04:13:26.683Z,3.24
2023-02-14T04:15:28.332Z,3.20
2023-02-14T04:17:48.545Z,3.13
2023-02-14T04:19:50.134Z,3.15
2023-02-14T04:21:52.469Z,3.14
2023-02-14T04:23:54.078Z,3.12
2023-02-14T04:25:55.833Z,3.10
2023-02-14T04:27:57.475Z,3.12
2023-02-14T04:29:59.105Z,3.13
2023-02-14T04:32:00.828Z,3.10
2023-02-14T04:34:02.586Z,3.13
2023-02-14T04:36:04.494Z,3.22
2023-02-14T04:38:07.061Z,3.20
2023-02-14T04:40:09.324Z,3.20
2023-02-14T04:42:11.168Z,3.11
2023-02-14T04:44:12.823Z,3.15
2023-02-14T04:46:14.494Z,3.10
2023-02-14T04:48:16.238Z,3.09
2023-02-14T04:50:17.801Z,3.10
2023-02-14T04:52:19.406Z,3.08
2023-02-14T04:54:21.087Z,3.01
2023-02-14T04:56:22.734Z,3.08
2023-02-14T04:58:24.355Z,3.12
2023-02-14T05:00:26.148Z,3.14
2023-02-14T05:02:27.964Z,3.08
2023-02-14T05:04:29.530Z,3.12
2023-02-14T05:06:31.369Z,3.13
2023-02-14T05:08:32.940Z,3.16
2023-02-14T05:10:34.556Z,3.21
2023-02-14T05:12:36.279Z,3.21
2023-02-14T05:14:37.852Z,3.26
2023-02-14T05:16:39.547Z,3.23
2023-02-14T05:18:41.133Z,3.10
2023-02-14T05:20:42.771Z,3.11
2023-02-14T05:22:44.372Z,3.18
2023-02-14T05:24:45.969Z,3.18
2023-02-14T05:26:47.618Z,3.27
2023-02-14T05:28:49.225Z,3.19
2023-02-14T05:30:51.762Z,3.20
2023-02-14T05:32:54.151Z,3.23
2023-02-14T05:34:55.732Z,3.17
2023-02-14T05:36:57.759Z,3.19
2023-02-14T05:38:59.575Z,3.23
2023-02-14T05:41:02.102Z,3.32
2023-02-14T05:43:03.914Z,3.34
2023-02-14T05:45:06.319Z,3.34
2023-02-14T05:47:07.902Z,3.33
2023-02-14T05:49:09.597Z,3.31
2023-02-14T05:51:11.593Z,3.32
2023-02-14T05:53:14.941Z,3.37
2023-02-14T05:55:16.589Z,3.35
2023-02-14T05:57:18.205Z,3.29
2023-02-14T05:59:19.871Z,3.30
2023-02-14T06:01:22.166Z,3.34
2023-02-14T06:03:24.254Z,3.30
2023-02-14T06:05:27.129Z,3.46
2023-02-14T06:07:28.792Z,3.55
2023-02-14T06:09:30.516Z,3.49
2023-02-14T06:11:32.135Z,3.46
2023-02-14T06:13:33.758Z,3.51
2023-02-14T06:15:36.618Z,3.39
2023-02-14T06:17:38.255Z,3.39
2023-02-14T06:19:40.011Z,3.51
2023-02-14T06:21:41.612Z,3.50
2023-02-14T06:23:43.229Z,3.46
2023-02-14T06:25:44.829Z,3.44
2023-02-14T06:27:49.034Z,3.47
2023-02-14T06:29:50.955Z,3.57
2023-02-14T06:31:52.779Z,3.40
2023-02-14T06:33:54.569Z,3.52
2023-02-14T06:35:56.217Z,3.61
2023-02-14T06:37:57.850Z,3.59
2023-02-14T06:39:59.425Z,3.60
2023-02-14T06:42:01.047Z,3.65
2023-02-14T06:44:02.681Z,3.66
2023-02-14T06:46:04.482Z,3.65
2023-02-14T06:48:06.316Z,3.69
2023-02-14T06:50:08.420Z,3.63
2023-02-14T06:52:10.001Z,3.72
2023-02-14T06:54:11.737Z,3.75
2023-02-14T06:56:13.351Z,3.86
2023-02-14T06:58:15.273Z,3.74
2023-02-14T07:00:17.430Z,3.77
2023-02-14T07:02:19.211Z,3.80
2023-02-14T07:04:20.848Z,3.86
2023-02-14T07:06:22.456Z,3.90
2023-02-14T07:08:26.145Z,3.87
2023-02-14T07:10:27.806Z,3.95
2023-02-14T07:12:29.382Z,4.01
2023-02-14T07:14:31.112Z,3.93
2023-02-14T07:16:32.740Z,3.84
2023-02-14T07:18:34.420Z,3.90
2023-02-14T07:20:36.050Z,3.94
2023-02-14T07:22:38.660Z,3.91
2023-02-14T07:24:40.282Z,3.88
2023-02-14T07:26:41.917Z,3.81
2023-02-14T07:28:48.778Z,3.83
2023-02-14T07:30:50.534Z,3.78
2023-02-14T07:32:52.175Z,3.48
2023-02-14T07:34:53.766Z,3.44
2023-02-14T07:36:55.388Z,3.47
2023-02-14T07:38:57.358Z,3.53
2023-02-14T07:40:59.403Z,3.35
2023-02-14T07:43:01.277Z,3.20
2023-02-14T07:45:15.889Z,3.37
2023-02-14T07:47:22.606Z,3.50
2023-02-14T07:49:24.233Z,3.56
2023-02-14T07:51:25.876Z,3.45
2023-02-14T07:53:27.603Z,3.37
2023-02-14T07:55:29.220Z,3.31
2023-02-14T07:57:30.824Z,3.04
2023-02-14T07:59:32.487Z,2.85
2023-02-14T08:01:34.503Z,2.98
2023-02-14T08:03:36.220Z,3.07
2023-02-14T08:05:37.897Z,3.15
2023-02-14T08:07:39.460Z,3.22
2023-02-14T08:09:41.085Z,3.15
2023-02-14T08:12:01.055Z,3.15
2023-02-14T08:14:03.926Z,3.14
2023-02-14T08:16:05.889Z,3.08
2023-02-14T08:18:07.756Z,3.17
2023-02-14T08:20:09.764Z,3.18
2023-02-14T08:22:11.421Z,3.20
2023-02-14T08:24:13.073Z,3.23
2023-02-14T08:26:15.063Z,3.28
2023-02-14T08:28:17.222Z,3.30
2023-02-14T08:30:19.038Z,3.33
2023-02-14T08:32:21.131Z,3.41
2023-02-14T08:34:22.769Z,3.17
2023-02-14T08:36:24.309Z,2.93
2023-02-14T08:38:26.047Z,2.87
2023-02-14T08:40:28.456Z,3.01
2023-02-14T08:42:30.042Z,3.00
2023-02-14T08:44:31.783Z,3.14
2023-02-14T08:46:33.365Z,3.11
2023-02-14T08:48:37.439Z,3.18
2023-02-14T08:50:41.157Z,2.87
2023-02-14T08:52:46.224Z,2.89
2023-02-14T08:54:47.807Z,2.91
2023-02-14T08:56:49.473Z,2.89
2023-02-14T08:58:54.868Z,2.90
2023-02-14T09:00:56.584Z,2.93
2023-02-14T09:02:58.167Z,3.04
2023-02-14T09:05:00.045Z,3.12
2023-02-14T09:07:02.120Z,3.01
2023-02-14T09:09:04.035Z,3.04
2023-02-14T09:11:14.819Z,3.01
2023-02-14T09:13:16.468Z,3.17
2023-02-14T09:15:18.188Z,3.21
2023-02-14T09:17:19.822Z,3.29
2023-02-14T09:19:21.589Z,3.33
2023-02-14T09:21:26.207Z,3.41
2023-02-14T09:23:28.076Z,3.46
2023-02-14T09:25:29.742Z,3.46
2023-02-14T09:27:32.332Z,3.33
2023-02-14T09:29:34.505Z,3.27
2023-02-14T09:31:36.172Z,3.46
2023-02-14T09:33:38.166Z,3.55
2023-02-14T09:35:39.839Z,3.48
2023-02-14T09:38:00.106Z,3.51
2023-02-14T09:40:01.728Z,3.64
2023-02-14T09:42:21.406Z,3.76
2023-02-14T09:44:34.866Z,3.54
2023-02-14T09:46:42.897Z,3.41
2023-02-14T09:48:47.530Z,3.26
2023-02-14T09:50:52.161Z,3.22
2023-02-14T09:52:57.877Z,3.34
2023-02-14T09:55:01.395Z,3.34
2023-02-14T09:57:27.833Z,3.45
2023-02-14T09:59:48.011Z,3.61
2023-02-14T10:02:09.976Z,3.73
2023-02-14T10:04:24.334Z,3.52
2023-02-14T10:06:40.680Z,3.53
2023-02-14T10:08:50.163Z,3.59
2023-02-14T10:11:02.943Z,3.72
2023-02-14T10:13:17.290Z,3.69
2023-02-14T10:15:19.634Z,3.78
2023-02-14T10:17:36.677Z,3.69
2023-02-14T10:19:46.771Z,3.53
2023-02-14T10:22:05.479Z,3.47
2023-02-14T10:24:28.777Z,3.18
2023-02-14T10:26:37.184Z,3.30
2023-02-14T10:28:49.320Z,3.31
2023-02-14T10:31:05.225Z,3.47
2023-02-14T10:33:16.124Z,3.36
2023-02-14T10:35:31.673Z,3.49
2023-02-14T10:38:26.982Z,3.48
2023-02-14T10:40:35.425Z,3.40
2023-02-14T10:42:43.078Z,3.39
2023-02-14T10:45:06.598Z,3.28
2023-02-14T10:47:24.225Z,3.30
2023-02-14T10:49:55.095Z,3.16
2023-02-14T10:52:15.679Z,3.21
2023-02-14T10:54:27.014Z,3.24
2023-02-14T10:56:44.246Z,3.37
2023-02-14T10:58:46.709Z,3.44
2023-02-14T11:01:21.067Z,3.40
2023-02-14T11:03:22.891Z,3.30
2023-02-14T11:05:46.951Z,3.21
2023-02-14T11:07:48.943Z,3.22
2023-02-14T11:09:50.873Z,3.19
2023-02-14T11:11:57.516Z,3.13
2023-02-14T11:13:59.098Z,3.27
2023-02-14T11:16:03.786Z,3.33
2023-02-14T11:18:22.664Z,3.39
2023-02-14T11:20:24.547Z,3.55
2023-02-14T11:22:30.947Z,3.67
2023-02-14T11:24:41.690Z,3.46
2023-02-14T11:26:47.449Z,3.23
2023-02-14T11:28:51.444Z,3.16
2023-02-14T11:30:53.348Z,3.07
2023-02-14T11:32:57.691Z,3.24
2023-02-14T11:35:08.794Z,3.33
2023-02-14T11:37:22.376Z,3.58
2023-02-14T11:39:29.406Z,3.50
2023-02-14T11:41:54.217Z,3.38
2023-02-14T11:44:14.410Z,3.45
2023-02-14T11:46:26.905Z,3.61
2023-02-14T11:48:37.655Z,3.58
2023-02-14T11:50:42.116Z,3.67
2023-02-14T11:52:51.309Z,3.79
2023-02-14T11:54:54.135Z,3.95
2023-02-14T11:57:03.203Z,4.04
2023-02-14T11:59:05.761Z,3.90
2023-02-14T12:01:12.433Z,3.85
2023-02-14T12:03:18.531Z,3.66
2023-02-14T12:05:26.664Z,3.66
2023-02-14T12:07:38.400Z,3.65
2023-02-14T12:09:42.656Z,3.81
2023-02-14T12:11:54.517Z,3.86
2023-02-14T12:13:57.653Z,3.92
2023-02-14T12:15:59.840Z,3.88
2023-02-14T12:18:38.896Z,3.90
2023-02-14T12:21:01.508Z,4.00
2023-02-14T12:23:18.925Z,4.03
2023-02-14T12:25:33.823Z,4.05
2023-02-14T12:27:54.208Z,4.10
2023-02-14T12:30:17.494Z,4.15
2023-02-14T12:32:24.969Z,4.23
2023-02-14T12:34:26.776Z,4.20
2023-02-14T12:36:54.465Z,4.25
2023-02-14T12:39:03.938Z,4.30
2023-02-14T12:41:17.605Z,4.39
2023-02-14T12:43:58.294Z,4.53
2023-02-14T12:46:18.710Z,4.48
2023-02-14T12:48:55.841Z,4.52
2023-02-14T12:51:27.863Z,4.41
2023-02-14T12:53:35.714Z,4.29
2023-02-14T12:55:48.715Z,4.29
2023-02-14T12:58:03.278Z,4.18
2023-02-14T13:00:15.124Z,4.19
2023-02-14T13:02:35.529Z,4.37
2023-02-14T13:04:45.898Z,4.27
2023-02-14T13:07:06.307Z,4.33
2023-02-14T13:09:33.654Z,4.42
2023-02-14T13:11:44.391Z,4.42
2023-02-14T13:13:56.666Z,4.48
2023-02-14T13:16:21.432Z,4.46
2023-02-14T13:18:25.993Z,4.40
2023-02-14T13:20:36.699Z,4.49
2023-02-14T13:22:38.489Z,4.50
2023-02-14T13:24:46.622Z,4.48
2023-02-14T13:26:57.324Z,4.45
2023-02-14T13:29:02.782Z,4.47
2023-02-14T13:31:05.186Z,4.38
2023-02-14T13:33:15.199Z,4.46
2023-02-14T13:35:18.963Z,4.46
2023-02-14T13:37:23.138Z,4.33
2023-02-14T13:39:44.042Z,4.28
2023-02-14T13:41:45.681Z,4.39
2023-02-14T13:43:58.661Z,4.37
2023-02-14T13:46:00.384Z,4.48
2023-02-14T13:48:09.116Z,4.49
2023-02-14T13:50:21.472Z,4.39
2023-02-14T13:52:40.384Z,4.30
2023-02-14T13:54:45.052Z,4.41
2023-02-14T13:56:46.853Z,4.40
2023-02-14T13:59:05.477Z,4.20
2023-02-14T14:01:30.290Z,4.32
2023-02-14T14:03:31.750Z,4.28
2023-02-14T14:05:33.343Z,4.23
2023-02-14T14:07:35.015Z,4.19
2023-02-14T14:09:42.792Z,4.31
2023-02-14T14:11:44.464Z,4.21
2023-02-14T14:13:55.378Z,4.17
2023-02-14T14:16:28.141Z,4.29
2023-02-14T14:18:32.029Z,4.28
2023-02-14T14:20:54.656Z,4.18
2023-02-14T14:23:00.334Z,4.23
2023-02-14T14:25:05.383Z,4.12
2023-02-14T14:27:15.759Z,4.06
2023-02-14T14:29:34.751Z,4.16
2023-02-14T14:31:37.036Z,4.15
2023-02-14T14:33:38.644Z,4.18
2023-02-14T14:35:40.242Z,4.23
2023-02-14T14:37:48.047Z,4.34
2023-02-14T14:39:54.719Z,4.30
2023-02-14T14:42:06.863Z,4.23
2023-02-14T14:44:08.675Z,4.24
2023-02-14T14:46:14.589Z,4.32
2023-02-14T14:48:40.322Z,4.28
2023-02-14T14:50:44.641Z,4.29
2023-02-14T14:52:48.573Z,4.33
2023-02-14T14:54:50.007Z,4.41
2023-02-14T14:56:59.283Z,4.34
2023-02-14T14:59:32.165Z,4.18
2023-02-14T15:01:38.144Z,4.19
2023-02-14T15:03:40.274Z,4.20
2023-02-14T15:05:50.353Z,4.25
2023-02-14T15:07:52.403Z,4.38
2023-02-14T15:09:54.093Z,4.33
2023-02-14T15:12:14.377Z,4.28
2023-02-14T15:14:21.872Z,4.42
2023-02-14T15:16:38.645Z,4.44
2023-02-14T15:18:40.600Z,4.50
2023-02-14T15:20:42.772Z,4.46
2023-02-14T15:22:46.746Z,4.44
2023-02-14T15:24:48.595Z,4.41
2023-02-14T15:26:53.393Z,4.42
2023-02-14T15:28:58.071Z,4.38
2023-02-14T15:31:04.728Z,4.26
2023-02-14T15:33:07.724Z,4.38
2023-02-14T15:35:11.193Z,4.41
2023-02-14T15:37:13.298Z,4.43
2023-02-14T15:39:16.662Z,4.50
2023-02-14T15:41:20.143Z,4.49
2023-02-14T15:43:40.977Z,4.43
2023-02-14T15:45:44.222Z,4.49
2023-02-14T15:47:47.870Z,4.38
2023-02-14T15:49:49.459Z,4.47
2023-02-14T15:51:51.297Z,4.54
2023-02-14T15:53:58.475Z,4.52
2023-02-14T15:56:09.333Z,4.53
2023-02-14T15:58:20.560Z,4.45
2023-02-14T16:00:23.154Z,4.41
2023-02-14T16:02:30.744Z,4.50
2023-02-14T16:04:34.137Z,4.56
2023-02-14T16:06:39.797Z,4.51
2023-02-14T16:08:41.772Z,4.37
2023-02-14T16:10:43.479Z,4.38
2023-02-14T16:13:14.016Z,4.46
2023-02-14T16:15:15.635Z,4.43
2023-02-14T16:17:32.106Z,4.45
2023-02-14T16:19:34.576Z,4.46
2023-02-14T16:21:36.234Z,4.34
2023-02-14T16:23:38.650Z,4.31
2023-02-14T16:25:43.841Z,4.37
2023-02-14T16:27:45.493Z,4.31
2023-02-14T16:29:47.091Z,4.30
2023-02-14T16:32:14.654Z,4.26
2023-02-14T16:34:16.642Z,4.23
2023-02-14T16:36:31.311Z,4.23
2023-02-14T16:38:37.045Z,4.08
2023-02-14T16:40:38.648Z,4.12
2023-02-14T16:42:40.464Z,4.14
2023-02-14T16:44:42.096Z,4.06
2023-02-14T16:46:45.514Z,4.11
2023-02-14T16:48:47.160Z,4.20
2023-02-14T16:50:49.008Z,4.14
2023-02-14T16:52:51.872Z,4.19
2023-02-14T16:54:53.591Z,4.29
2023-02-14T16:57:04.979Z,4.27
2023-02-14T16:59:06.629Z,4.25
2023-02-14T17:01:08.288Z,4.27
2023-02-14T17:03:11.522Z,4.18
2023-02-14T17:05:13.205Z,4.15
2023-02-14T17:07:15.869Z,4.13
2023-02-14T17:09:20.227Z,4.20
2023-02-14T17:11:23.857Z,4.19
2023-02-14T17:13:27.153Z,4.25
2023-02-14T17:15:29.106Z,4.14
2023-02-14T17:17:30.770Z,4.24
2023-02-14T17:19:33.181Z,4.18
2023-02-14T17:21:35.584Z,4.18
2023-02-14T17:23:37.336Z,4.15
2023-02-14T17:25:39.099Z,4.08
2023-02-14T17:27:44.039Z,4.02
2023-02-14T17:29:45.643Z,4.06
2023-02-14T17:31:47.346Z,4.17
2023-02-14T17:33:49.059Z,4.12
2023-02-14T17:35:51.140Z,4.22
2023-02-14T17:37:52.813Z,4.19
2023-02-14T17:39:54.435Z,4.07
2023-02-14T17:41:56.935Z,4.13
2023-02-14T17:44:00.449Z,4.10
2023-02-14T17:46:04.712Z,4.17
2023-02-14T17:48:06.688Z,4.03
2023-02-14T17:50:08.670Z,4.03
2023-02-14T17:52:10.225Z,4.13
2023-02-14T17:54:12.556Z,4.17
2023-02-14T17:56:20.704Z,4.18
2023-02-14T17:58:22.363Z,4.21
2023-02-14T18:00:24.355Z,4.20
2023-02-14T18:02:26.004Z,4.06
2023-02-14T18:04:30.315Z,4.04
2023-02-14T18:06:32.283Z,4.10
2023-02-14T18:08:36.444Z,4.13
2023-02-14T18:10:37.989Z,4.24
2023-02-14T18:12:39.647Z,4.27
2023-02-14T18:14:41.314Z,4.35
2023-02-14T18:16:43.392Z,4.26
2023-02-14T18:18:45.567Z,4.30
2023-02-14T18:20:58.047Z,4.34
2023-02-14T18:22:59.691Z,4.36
2023-02-14T18:25:01.279Z,4.33
2023-02-14T18:27:03.229Z,4.34
2023-02-14T18:29:06.732Z,4.40
2023-02-14T18:31:14.607Z,4.33
2023-02-14T18:33:18.403Z,4.35
2023-02-14T18:35:20.323Z,4.38
2023-02-14T18:37:22.209Z,4.30
2023-02-14T18:39:23.840Z,4.35
2023-02-14T18:41:26.691Z,4.56
2023-02-14T18:43:28.325Z,4.49
2023-02-14T18:45:29.964Z,4.59
2023-02-14T18:47:31.543Z,4.72
2023-02-14T18:49:33.514Z,4.64
2023-02-14T18:51:37.898Z,4.81
2023-02-14T18:53:40.324Z,4.88
2023-02-14T18:55:42.038Z,4.87
2023-02-14T18:57:43.678Z,4.87
2023-02-14T18:59:45.344Z,4.92
2023-02-14T19:01:47.409Z,4.71
2023-02-14T19:03:50.517Z,4.76
2023-02-14T19:05:53.317Z,4.77
2023-02-14T19:07:55.862Z,4.84
2023-02-14T19:09:57.830Z,4.84
2023-02-14T19:12:00.208Z,4.90
2023-02-14T19:14:03.138Z,4.67
2023-02-14T19:16:12.577Z,4.57
2023-02-14T19:18:14.452Z,4.45
2023-02-14T19:20:16.437Z,4.37
2023-02-14T19:22:17.999Z,4.35
2023-02-14T19:24:20.106Z,4.13
2023-02-14T19:26:32.970Z,4.03
2023-02-14T19:28:34.601Z,4.00
2023-02-14T19:30:37.668Z,4.04
2023-02-14T19:32:39.306Z,4.12
2023-02-14T19:34:40.876Z,4.14
2023-02-14T19:36:42.578Z,4.16
2023-02-14T19:38:46.909Z,4.08
2023-02-14T19:40:48.787Z,4.13
2023-02-14T19:42:50.475Z,4.17
2023-02-14T19:44:52.284Z,4.17
2023-02-14T19:46:56.754Z,4.10
2023-02-14T19:48:59.132Z,4.15
2023-02-14T19:51:01.017Z,4.13
2023-02-14T19:53:02.799Z,4.21
2023-02-14T19:55:04.575Z,4.29
2023-02-14T19:57:06.392Z,4.17
2023-02-14T19:59:09.331Z,3.95
2023-02-14T20:01:20.816Z,4.05
2023-02-14T20:03:22.626Z,4.05
2023-02-14T20:05:24.948Z,4.13
2023-02-14T20:07:26.610Z,4.03
2023-02-14T20:09:29.276Z,3.98
2023-02-14T20:11:32.202Z,4.04
2023-02-14T20:13:33.794Z,4.08
2023-02-14T20:15:35.758Z,3.96
2023-02-14T20:17:37.390Z,4.02
2023-02-14T20:19:39.070Z,3.97
2023-02-14T20:21:42.144Z,3.99
2023-02-14T20:23:44.824Z,4.01
2023-02-14T20:25:46.453Z,4.00
2023-02-14T20:27:48.171Z,4.08
2023-02-14T20:29:51.810Z,4.13
2023-02-14T20:31:58.040Z,4.02
2023-02-14T20:34:00.163Z,3.93
2023-02-14T20:36:02.242Z,3.84
2023-02-14T20:38:07.531Z,3.74
2023-02-14T20:40:10.990Z,3.76
2023-02-14T20:42:12.710Z,3.82
2023-02-14T20:44:17.117Z,3.84
2023-02-14T20:46:18.885Z,3.74
2023-02-14T20:48:20.524Z,3.80
2023-02-14T20:50:22.241Z,3.76
2023-02-14T20:52:23.871Z,3.82
2023-02-14T20:54:26.817Z,3.83
2023-02-14T20:56:28.719Z,3.81
2023-02-14T20:58:34.696Z,3.76
2023-02-14T21:00:36.291Z,3.77
2023-02-14T21:02:37.960Z,3.69
2023-02-14T21:04:39.665Z,3.73
2023-02-14T21:06:41.234Z,3.76
2023-02-14T21:08:43.576Z,3.71
2023-02-14T21:10:45.121Z,3.72
2023-02-14T21:12:48.429Z,3.81
2023-02-14T21:14:50.265Z,3.77
2023-02-14T21:16:51.896Z,3.79
2023-02-14T21:18:59.014Z,3.72
2023-02-14T21:21:34.957Z,3.60
2023-02-14T21:23:36.516Z,3.57
2023-02-14T21:25:39.342Z,3.53
2023-02-14T21:27:41.398Z,3.57
2023-02-14T21:29:43.086Z,3.64
2023-02-14T21:31:44.830Z,3.77
2023-02-14T21:33:50.023Z,3.79
2023-02-14T21:35:51.600Z,3.64
2023-02-14T21:37:53.170Z,3.57
2023-02-14T21:39:54.850Z,3.58
2023-02-14T21:41:56.887Z,3.64
2023-02-14T21:44:00.048Z,3.67
2023-02-14T21:46:09.052Z,3.73
2023-02-14T21:48:29.726Z,3.71
2023-02-14T21:50:31.425Z,3.62
2023-02-14T21:52:33.150Z,3.63
2023-02-14T21:54:34.786Z,3.64
2023-02-14T21:56:37.497Z,3.61
2023-02-14T21:58:39.205Z,3.61
2023-02-14T22:00:44.759Z,3.64
2023-02-14T22:02:46.498Z,3.62
2023-02-14T22:04:48.099Z,3.63
2023-02-14T22:06:49.680Z,3.63
2023-02-14T22:08:55.106Z,3.69
2023-02-14T22:10:57.039Z,3.75
2023-02-14T22:12:58.711Z,3.74
2023-02-14T22:15:01.386Z,3.58
2023-02-14T22:17:03.033Z,3.66
2023-02-14T22:19:06.399Z,3.63
2023-02-14T22:21:10.344Z,3.64
2023-02-14T22:23:11.879Z,3.72
2023-02-14T22:25:13.529Z,3.64
2023-02-14T22:27:16.198Z,3.64
2023-02-14T22:29:17.892Z,3.78
2023-02-14T22:31:20.355Z,3.75
2023-02-14T22:33:21.971Z,3.77
2023-02-14T22:35:23.655Z,3.66
2023-02-14T22:37:25.277Z,3.72
2023-02-14T22:39:26.890Z,3.80
2023-02-14T22:41:28.587Z,3.81
2023-02-14T22:43:30.205Z,3.86
2023-02-14T22:45:32.073Z,3.89
2023-02-14T22:47:33.681Z,3.90
2023-02-14T22:49:35.294Z,3.94
2023-02-14T22:51:39.680Z,3.90
2023-02-14T22:53:41.250Z,3.94
2023-02-14T22:55:42.824Z,3.85
2023-02-14T22:57:44.483Z,3.74
2023-02-14T22:59:46.058Z,3.82
2023-02-14T23:01:48.644Z,3.86
2023-02-14T23:03:53.402Z,3.92
2023-02-14T23:05:58.172Z,3.93
2023-02-14T23:08:01.346Z,3.85
2023-02-14T23:10:03.218Z,3.72
2023-02-14T23:12:25.019Z,3.73
2023-02-14T23:14:45.242Z,3.74
2023-02-14T23:17:05.382Z,3.75
2023-02-14T23:19:29.519Z,3.75
2023-02-14T23:21:49.577Z,3.77
2023-02-14T23:23:51.190Z,3.66
2023-02-14T23:25:52.787Z,3.59
2023-02-14T23:27:54.614Z,3.51
2023-02-14T23:29:56.312Z,3.46
2023-02-14T23:53:02.754Z,3.36
2023-02-14T23:55:04.688Z,3.37
2023-02-14T23:57:07.455Z,3.35
2023-02-14T23:59:09.777Z,3.28
